Ganser Bar, California
Current Conditions -  °F | °C
As of 8:53 PM on Sunday 21 Dec 2014 (Local Time) from KOVE Reporting Station
Clear Clear  
Wind Chill: 56°   Ceiling: Unl
Heat Index: 56°   Visibility: 7mi
Dew Point: 54°   Wind: 0mph
Humidity: 93%   Direction: NA
Pressure: 30.29"   Gusts: NA
Location:  40.0464°N, 121.282°W
Report Text: KOVE 220453Z AUTO 00000KT 7SM CLR 13/12 A3029 RMK AO2 SLP261 T01330122
Loading
Personal Weather Stations






























Interactive Weather Map New forecast layout! Learn more

10-Day Weather Forecast

Advertisements
Track Severe Weather on mobile